Time;durP1;ratioP1;P1;durP2;ratioP2;P2;SDS_P1;SDS_P2;PMS_P1;PMS_P2;Temp;Humidity;BMP_temperature;BMP_pressure;BME280_temperature;BME280_humidity;BME280_pressure;Samples;Min_cycle;Max_cycle;Signal;HPM_P1;HPM_P2
2020/12/24 00:02:00;;;;;;;0.50;0.50;;;5.90;99.90;;;;;;4839832;29;20231;-88
2020/12/24 00:04:25;;;;;;;0.83;0.83;;;5.80;99.90;;;;;;4841866;29;20235;-88
2020/12/24 00:06:51;;;;;;;0.20;0.20;;;5.80;99.90;;;;;;4844972;29;20259;-88
2020/12/24 00:09:17;;;;;;;0.53;0.53;;;5.80;99.90;;;;;;4824963;29;20224;-88
2020/12/24 00:11:43;;;;;;;0.30;0.30;;;5.80;99.90;;;;;;4828514;29;21257;-89
2020/12/24 00:14:08;;;;;;;0.77;0.73;;;5.70;99.90;;;;;;4812256;29;20631;-88
2020/12/24 00:16:34;;;;;;;0.47;0.47;;;5.70;99.90;;;;;;4825816;29;20224;-88
2020/12/24 00:19:00;;;;;;;3.20;0.40;;;5.70;99.90;;;;;;4841592;29;20717;-89
2020/12/24 00:21:26;;;;;;;0.43;0.43;;;5.70;99.90;;;;;;4858800;29;20319;-88
2020/12/24 00:23:52;;;;;;;0.30;0.30;;;5.70;99.90;;;;;;4824563;29;20212;-88
2020/12/24 00:26:17;;;;;;;0.20;0.20;;;5.60;99.90;;;;;;4829129;29;20234;-88
2020/12/24 00:28:43;;;;;;;4.43;0.63;;;5.60;99.90;;;;;;4839370;29;20219;-89
2020/12/24 00:31:09;;;;;;;0.20;0.20;;;5.50;99.90;;;;;;4827928;29;20223;-88
2020/12/24 00:33:35;;;;;;;1.53;0.50;;;5.50;99.90;;;;;;4841439;29;20231;-88
2020/12/24 00:36:01;;;;;;;0.30;0.30;;;5.50;99.90;;;;;;4827340;29;20220;-89
2020/12/24 00:38:28;;;;;;;2.50;0.37;;;5.50;99.90;;;;;;4828061;29;20747;-89
2020/12/24 00:40:54;;;;;;;0.90;0.90;;;5.50;99.90;;;;;;4857279;29;20384;-88
2020/12/24 00:43:21;;;;;;;0.50;0.50;;;5.50;99.90;;;;;;4839940;29;20196;-88
2020/12/24 00:45:47;;;;;;;0.33;0.33;;;5.50;99.90;;;;;;4841542;29;21154;-88
2020/12/24 00:48:12;;;;;;;3.17;0.90;;;5.50;99.90;;;;;;4840149;29;20219;-88
2020/12/24 00:50:38;;;;;;;1.90;0.33;;;5.50;99.90;;;;;;4824040;29;20236;-87
2020/12/24 00:53:04;;;;;;;1.33;1.23;;;5.50;99.90;;;;;;4840385;29;20224;-88
2020/12/24 00:55:30;;;;;;;3.37;0.63;;;5.60;99.90;;;;;;4840997;29;20655;-88
2020/12/24 00:57:55;;;;;;;3.07;1.50;;;5.60;99.90;;;;;;4843177;29;20197;-89
2020/12/24 01:00:21;;;;;;;0.20;0.20;;;5.60;99.90;;;;;;4827517;29;21304;-88
2020/12/24 01:02:47;;;;;;;1.87;0.40;;;5.60;99.90;;;;;;4842278;29;20593;-88
2020/12/24 01:05:13;;;;;;;4.97;1.03;;;5.70;99.90;;;;;;4840361;29;21256;-88
2020/12/24 01:07:38;;;;;;;0.20;0.20;;;5.70;99.90;;;;;;4836651;29;20240;-89
2020/12/24 01:10:08;;;;;;;0.50;0.40;;;5.70;99.90;;;;;;4838836;29;20192;-88
2020/12/24 01:12:34;;;;;;;2.73;0.50;;;5.70;99.90;;;;;;4834822;29;20248;-89
2020/12/24 01:15:01;;;;;;;0.40;0.40;;;5.70;99.90;;;;;;4836571;29;20219;-88
2020/12/24 01:17:27;;;;;;;2.33;1.07;;;5.70;99.90;;;;;;4856188;29;20232;-89
2020/12/24 01:19:53;;;;;;;0.10;0.10;;;5.80;99.90;;;;;;4822390;29;20232;-88
2020/12/24 01:22:19;;;;;;;3.40;0.50;;;5.80;99.90;;;;;;4820771;29;20201;-89
2020/12/24 01:24:44;;;;;;;2.67;0.80;;;5.80;99.90;;;;;;4821638;29;20192;-89
2020/12/24 01:27:10;;;;;;;0.77;0.77;;;5.80;99.90;;;;;;4838876;29;21415;-88
2020/12/24 01:29:36;;;;;;;0.23;0.20;;;5.70;99.90;;;;;;4837981;29;20228;-88
2020/12/24 01:32:02;;;;;;;0.33;0.33;;;5.80;99.90;;;;;;4828148;29;20776;-88
2020/12/24 01:34:28;;;;;;;5.90;1.20;;;5.80;99.90;;;;;;4830238;29;20212;-88
2020/12/24 01:36:54;;;;;;;0.57;0.57;;;5.80;99.90;;;;;;4843440;29;20196;-88
2020/12/24 01:39:20;;;;;;;0.40;0.40;;;5.80;99.90;;;;;;4843141;29;20276;-88
2020/12/24 01:41:47;;;;;;;5.63;0.90;;;5.70;99.90;;;;;;4829845;29;20224;-89
2020/12/24 01:44:13;;;;;;;0.97;0.40;;;5.80;99.90;;;;;;4844756;29;20232;-89
2020/12/24 01:46:39;;;;;;;0.57;0.50;;;5.70;99.90;;;;;;4826965;29;20225;-89
2020/12/24 01:49:05;;;;;;;0.50;0.50;;;5.70;99.90;;;;;;4831921;29;20205;-88
2020/12/24 01:51:31;;;;;;;0.47;0.47;;;5.70;99.90;;;;;;4845276;29;21296;-88
2020/12/24 01:53:59;;;;;;;0.30;0.30;;;5.70;99.90;;;;;;4862374;29;20227;-88
2020/12/24 01:56:26;;;;;;;0.30;0.30;;;5.70;99.90;;;;;;4843103;29;20303;-87
2020/12/24 01:58:53;;;;;;;3.13;0.50;;;5.60;99.90;;;;;;4841974;29;20221;-89
2020/12/24 02:01:19;;;;;;;1.40;1.30;;;5.60;99.90;;;;;;4841180;29;20508;-87
2020/12/24 02:03:45;;;;;;;0.57;0.50;;;5.60;99.90;;;;;;4843363;29;20201;-88
2020/12/24 02:06:11;;;;;;;1.43;0.73;;;5.60;99.90;;;;;;4841472;29;20632;-88
2020/12/24 02:08:38;;;;;;;0.83;0.40;;;5.60;99.90;;;;;;4837393;29;20228;-88
2020/12/24 02:11:04;;;;;;;1.00;1.00;;;5.60;99.90;;;;;;4838930;29;20323;-87
2020/12/24 02:13:30;;;;;;;0.83;0.83;;;5.60;99.90;;;;;;4844297;29;20232;-88
2020/12/24 02:15:56;;;;;;;0.50;0.40;;;5.50;99.90;;;;;;4823527;29;20200;-88
2020/12/24 02:18:22;;;;;;;0.20;0.20;;;5.50;99.90;;;;;;4824259;29;20304;-87
2020/12/24 02:20:47;;;;;;;3.57;1.30;;;5.50;99.90;;;;;;4843602;29;20320;-87
2020/12/24 02:23:14;;;;;;;0.27;0.27;;;5.40;99.90;;;;;;4843483;29;20226;-87
2020/12/24 02:25:40;;;;;;;3.03;1.20;;;5.40;99.90;;;;;;4842931;29;20220;-88
2020/12/24 02:28:07;;;;;;;2.30;0.77;;;5.40;99.90;;;;;;4841744;29;20216;-87
2020/12/24 02:30:33;;;;;;;1.40;0.57;;;5.40;99.90;;;;;;4842825;29;20240;-87
2020/12/24 02:32:59;;;;;;;0.97;0.90;;;5.40;99.90;;;;;;4828671;29;20228;-87
2020/12/24 02:35:25;;;;;;;3.53;0.60;;;5.30;99.90;;;;;;4812498;29;20227;-87
2020/12/24 02:37:50;;;;;;;0.67;0.67;;;5.30;99.90;;;;;;4828443;29;20232;-87
2020/12/24 02:40:16;;;;;;;0.50;0.50;;;5.30;99.90;;;;;;4843877;29;21017;-88
2020/12/24 02:42:42;;;;;;;0.73;0.53;;;5.30;99.90;;;;;;4828988;29;20713;-87
2020/12/24 02:45:08;;;;;;;0.20;0.20;;;5.30;99.90;;;;;;4842620;29;20227;-88
2020/12/24 02:47:36;;;;;;;0.90;0.70;;;5.30;99.90;;;;;;4859389;29;20232;-87
2020/12/24 02:50:05;;;;;;;0.30;0.30;;;5.30;99.90;;;;;;4843843;29;20227;-88
2020/12/24 02:52:30;;;;;;;0.63;0.50;;;5.20;99.90;;;;;;4844571;29;20231;-88
2020/12/24 02:54:56;;;;;;;3.80;0.90;;;5.20;99.90;;;;;;4830336;29;20941;-88
2020/12/24 02:57:22;;;;;;;2.40;0.70;;;5.30;99.90;;;;;;4813921;29;20560;-88
2020/12/24 02:59:47;;;;;;;0.60;0.60;;;5.30;99.90;;;;;;4839832;29;20220;-88
2020/12/24 03:02:13;;;;;;;1.57;0.80;;;5.30;99.90;;;;;;4856496;29;20237;-87
2020/12/24 03:04:39;;;;;;;0.30;0.30;;;5.30;99.90;;;;;;4827055;29;20221;-88
2020/12/24 03:07:05;;;;;;;0.73;0.73;;;5.30;99.90;;;;;;4844254;29;20200;-87
2020/12/24 03:09:30;;;;;;;1.43;0.73;;;5.30;99.90;;;;;;4841364;29;20762;-87
2020/12/24 03:11:56;;;;;;;0.50;0.50;;;5.30;99.90;;;;;;4843432;29;20251;-88
2020/12/24 03:14:22;;;;;;;0.60;0.50;;;5.40;99.90;;;;;;4841415;29;20568;-87
2020/12/24 03:16:48;;;;;;;3.60;0.40;;;5.40;99.90;;;;;;4829153;29;20311;-88
2020/12/24 03:19:14;;;;;;;0.60;0.60;;;5.40;99.90;;;;;;4825739;29;20232;-88
2020/12/24 03:21:40;;;;;;;0.57;0.40;;;5.40;99.90;;;;;;4829472;29;20203;-88
2020/12/24 03:24:06;;;;;;;0.50;0.50;;;5.30;99.90;;;;;;4832370;29;20296;-87
2020/12/24 03:26:32;;;;;;;0.40;0.40;;;5.40;99.90;;;;;;4838850;29;20339;-88
2020/12/24 03:28:59;;;;;;;1.40;0.77;;;5.30;99.90;;;;;;4840142;29;20271;-88
2020/12/24 03:31:25;;;;;;;0.60;0.60;;;5.30;99.90;;;;;;4840746;29;20217;-88
2020/12/24 03:33:52;;;;;;;0.73;0.67;;;5.30;99.90;;;;;;4858168;29;20190;-88
2020/12/24 03:36:18;;;;;;;1.87;0.93;;;5.30;99.90;;;;;;4840461;29;20307;-88
2020/12/24 03:38:44;;;;;;;0.73;0.50;;;5.30;99.90;;;;;;4827311;29;21017;-88
2020/12/24 03:41:10;;;;;;;2.93;0.70;;;5.30;99.90;;;;;;4842710;29;20247;-88
2020/12/24 03:43:36;;;;;;;2.87;0.60;;;5.20;99.90;;;;;;4829564;29;20316;-89
2020/12/24 03:46:02;;;;;;;1.47;1.37;;;5.30;99.90;;;;;;4828303;29;20189;-88
2020/12/24 03:48:28;;;;;;;1.40;0.50;;;5.30;99.90;;;;;;4841445;29;20229;-89
2020/12/24 03:50:54;;;;;;;0.40;0.40;;;5.30;99.90;;;;;;4845123;29;20235;-89
2020/12/24 03:53:20;;;;;;;1.23;1.00;;;5.30;99.90;;;;;;4842416;29;20224;-89
2020/12/24 03:55:46;;;;;;;0.83;0.70;;;5.40;99.90;;;;;;4840141;29;20228;-89
2020/12/24 03:58:12;;;;;;;0.73;0.70;;;5.40;99.90;;;;;;4857278;29;20521;-88
2020/12/24 04:00:39;;;;;;;0.70;0.60;;;5.40;99.90;;;;;;4843998;29;20296;-88
2020/12/24 04:03:05;;;;;;;0.70;0.50;;;5.50;99.90;;;;;;4857237;29;20227;-88
2020/12/24 04:05:31;;;;;;;0.50;0.50;;;5.60;99.90;;;;;;4859564;29;20240;-89
2020/12/24 04:07:57;;;;;;;0.10;0.10;;;5.50;99.90;;;;;;4858346;29;20687;-88
2020/12/24 04:10:23;;;;;;;1.30;1.03;;;5.50;99.90;;;;;;4840944;29;21055;-88
2020/12/24 04:12:48;;;;;;;0.53;0.53;;;5.50;99.90;;;;;;4828807;29;20780;-86
2020/12/24 04:15:14;;;;;;;0.20;0.20;;;5.50;99.90;;;;;;4824559;29;20597;-88
2020/12/24 04:17:40;;;;;;;0.80;0.80;;;5.40;99.90;;;;;;4809606;29;21084;-88
2020/12/24 04:20:06;;;;;;;0.93;0.93;;;5.40;99.90;;;;;;4812290;29;20221;-87
2020/12/24 04:22:32;;;;;;;0.90;0.90;;;5.40;99.90;;;;;;4827315;29;20260;-88
2020/12/24 04:24:59;;;;;;;0.83;0.83;;;5.40;99.90;;;;;;4828184;29;20638;-88
2020/12/24 04:27:25;;;;;;;0.40;0.40;;;5.40;99.90;;;;;;4840584;29;20334;-88
2020/12/24 04:29:50;;;;;;;3.13;1.13;;;5.40;99.90;;;;;;4840334;29;20250;-88
2020/12/24 04:32:16;;;;;;;0.60;0.60;;;5.40;99.90;;;;;;4858387;29;20643;-88
2020/12/24 04:34:42;;;;;;;0.50;0.50;;;5.40;99.90;;;;;;4841067;29;20713;-88
2020/12/24 04:37:08;;;;;;;0.33;0.33;;;5.40;99.90;;;;;;4840953;29;20256;-88
2020/12/24 04:39:34;;;;;;;0.73;0.50;;;5.40;99.90;;;;;;4839020;29;20223;-87
2020/12/24 04:42:00;;;;;;;5.50;0.90;;;5.30;99.90;;;;;;4825952;29;20240;-87
2020/12/24 04:44:30;;;;;;;0.70;0.70;;;5.30;99.90;;;;;;4840893;29;20216;-87
2020/12/24 04:46:57;;;;;;;0.70;0.70;;;5.30;99.90;;;;;;4857772;29;20235;-87
2020/12/24 04:49:25;;;;;;;6.63;1.90;;;5.30;99.90;;;;;;4854338;29;20714;-88
2020/12/24 04:51:52;;;;;;;6.07;1.03;;;5.40;99.90;;;;;;4827736;29;20245;-88
2020/12/24 04:54:18;;;;;;;0.53;0.53;;;5.40;99.90;;;;;;4841541;29;20220;-87
2020/12/24 04:56:44;;;;;;;0.70;0.70;;;5.40;99.90;;;;;;4842156;29;20579;-86
2020/12/24 04:59:10;;;;;;;6.33;1.17;;;5.50;99.90;;;;;;4857019;29;20235;-87
2020/12/24 05:01:36;;;;;;;1.03;0.50;;;5.50;99.90;;;;;;4840328;29;20280;-88
2020/12/24 05:04:02;;;;;;;1.50;1.43;;;5.60;99.90;;;;;;4859655;29;20201;-88
2020/12/24 05:06:28;;;;;;;8.17;0.60;;;5.60;99.90;;;;;;4841553;29;20224;-88
2020/12/24 05:08:56;;;;;;;0.63;0.50;;;5.70;99.90;;;;;;4859204;29;20224;-88
2020/12/24 05:11:33;;;;;;;12.93;1.10;;;5.70;99.90;;;;;;4843896;29;20236;-88
2020/12/24 05:14:15;;;;;;;0.70;0.70;;;5.80;99.90;;;;;;4857808;29;20246;-88
2020/12/24 05:17:02;;;;;;;0.50;0.50;;;5.80;99.90;;;;;;4841716;29;20224;-89
2020/12/24 05:19:30;;;;;;;0.60;0.50;;;5.90;99.90;;;;;;4843229;29;20254;-88
2020/12/24 05:21:57;;;;;;;0.73;0.57;;;5.90;99.90;;;;;;4847322;29;20199;-88
2020/12/24 05:24:33;;;;;;;0.13;0.13;;;5.90;99.90;;;;;;4844203;29;20312;-88
2020/12/24 05:27:13;;;;;;;5.93;0.40;;;5.90;99.90;;;;;;4846310;29;20216;-88
2020/12/24 05:29:44;;;;;;;3.73;1.17;;;6.00;99.90;;;;;;4858781;29;21340;-88
2020/12/24 05:32:11;;;;;;;0.10;0.10;;;6.00;99.90;;;;;;4860599;29;20239;-89
2020/12/24 05:34:37;;;;;;;0.30;0.20;;;6.10;99.90;;;;;;4828358;29;20303;-88
2020/12/24 05:37:13;;;;;;;0.30;0.30;;;6.10;99.90;;;;;;4860392;29;20206;-89
2020/12/24 05:39:44;;;;;;;0.20;0.20;;;6.10;99.90;;;;;;4830584;29;20219;-91
2020/12/24 05:42:09;;;;;;;0.10;0.10;;;6.10;99.90;;;;;;4839136;29;20247;-91
2020/12/24 05:44:36;;;;;;;0.13;0.13;;;6.20;99.90;;;;;;4829793;29;20701;-90
2020/12/24 05:47:03;;;;;;;3.70;1.30;;;6.40;99.90;;;;;;4859859;29;20217;-91
2020/12/24 05:49:29;;;;;;;0.40;0.40;;;6.40;99.90;;;;;;4826968;29;20586;-92
2020/12/24 05:52:05;;;;;;;0.20;0.20;;;6.40;99.90;;;;;;4861406;29;20223;-92
2020/12/24 05:54:32;;;;;;;0.33;0.27;;;6.40;99.90;;;;;;4840987;29;20239;-92
2020/12/24 05:56:58;;;;;;;0.20;0.20;;;6.40;99.90;;;;;;4828317;29;20332;-93
2020/12/24 05:59:26;;;;;;;0.33;0.33;;;6.50;99.90;;;;;;4843064;29;20307;-93
2020/12/24 06:02:05;;;;;;;0.20;0.20;;;6.50;99.90;;;;;;4842574;29;20881;-93
2020/12/24 06:04:49;;;;;;;0.20;0.20;;;6.60;99.90;;;;;;4850690;29;20291;-94
2020/12/24 06:07:30;;;;;;;0.60;0.50;;;6.60;99.90;;;;;;4827532;29;20302;-93
2020/12/24 06:10:04;;;;;;;0.20;0.20;;;6.60;99.90;;;;;;4844398;29;20228;-94
2020/12/24 06:12:29;;;;;;;1.70;0.30;;;6.60;99.90;;;;;;4837620;29;20233;-92
2020/12/24 06:15:01;;;;;;;0.20;0.20;;;6.60;99.90;;;;;;4838889;29;20232;-91
2020/12/24 06:17:30;;;;;;;0.57;0.23;;;6.60;99.90;;;;;;4820302;29;20239;-90
2020/12/24 06:19:57;;;;;;;0.10;0.10;;;6.60;99.90;;;;;;4838246;29;20240;-92
2020/12/24 06:22:25;;;;;;;2.90;0.40;;;6.60;99.90;;;;;;4840246;29;20777;-92
2020/12/24 06:24:53;;;;;;;0.60;0.60;;;6.60;99.90;;;;;;4852734;29;20252;-92
2020/12/24 06:27:41;;;;;;;0.20;0.20;;;6.60;99.90;;;;;;4839409;29;20223;-92
2020/12/24 06:30:19;;;;;;;0.10;0.10;;;6.60;99.90;;;;;;4833954;29;20301;-92
2020/12/24 06:32:49;;;;;;;0.20;0.20;;;6.60;99.90;;;;;;4849546;29;20274;-91
2020/12/24 06:35:35;;;;;;;1.20;1.07;;;6.60;99.90;;;;;;4840696;29;20219;-92
2020/12/24 06:38:04;;;;;;;0.83;0.43;;;6.60;99.90;;;;;;4840708;29;20224;-92
2020/12/24 06:40:32;;;;;;;6.17;0.77;;;6.70;99.90;;;;;;4841376;29;20232;-92
2020/12/24 06:42:58;;;;;;;3.40;0.83;;;6.70;99.90;;;;;;4828059;29;20279;-92
2020/12/24 06:45:30;;;;;;;1.23;1.03;;;6.70;99.90;;;;;;4825070;29;20303;-93
2020/12/24 06:48:27;;;;;;;0.10;0.10;;;6.60;99.90;;;;;;4849138;29;20228;-92
2020/12/24 06:51:02;;;;;;;11.27;0.67;;;6.60;99.90;;;;;;4827305;29;20236;-92
2020/12/24 06:53:32;;;;;;;2.93;0.87;;;6.70;99.90;;;;;;4857001;29;20757;-92
2020/12/24 06:56:26;;;;;;;5.60;0.40;;;6.70;99.90;;;;;;4858848;29;20220;-91
2020/12/24 06:58:52;;;;;;;0.10;0.10;;;6.80;99.90;;;;;;4841383;29;20243;-92
2020/12/24 07:01:30;;;;;;;3.33;1.30;;;6.70;99.90;;;;;;4849341;29;20201;-92
2020/12/24 07:03:58;;;;;;;10.73;1.77;;;6.70;99.90;;;;;;4843111;29;20188;-91
2020/12/24 07:06:42;;;;;;;1.33;1.33;;;6.60;99.90;;;;;;4858304;29;20690;-90
2020/12/24 07:09:08;;;;;;;0.30;0.30;;;6.60;99.90;;;;;;4848398;29;20252;-91
2020/12/24 07:11:42;;;;;;;1.03;1.00;;;6.50;99.90;;;;;;4826078;29;20232;-91
2020/12/24 07:14:28;;;;;;;1.27;0.87;;;6.50;99.90;;;;;;4842925;29;20702;-90
2020/12/24 07:16:55;;;;;;;9.70;2.77;;;6.50;99.90;;;;;;4858631;29;20229;-92
2020/12/24 07:19:21;;;;;;;1.03;0.60;;;6.50;99.90;;;;;;4843279;29;20358;-91
2020/12/24 07:21:50;;;;;;;7.13;0.37;;;6.50;99.90;;;;;;4845251;29;20208;-90
2020/12/24 07:24:25;;;;;;;2.00;0.80;;;6.50;99.90;;;;;;4843939;29;20224;-92
2020/12/24 07:26:54;;;;;;;0.10;0.10;;;6.40;99.90;;;;;;4841254;29;20242;-89
2020/12/24 07:29:22;;;;;;;0.30;0.30;;;6.40;99.90;;;;;;4823481;29;20216;-90
2020/12/24 07:31:50;;;;;;;2.73;0.77;;;6.40;99.90;;;;;;4829482;29;20244;-91
2020/12/24 07:34:24;;;;;;;6.40;1.17;;;6.50;99.90;;;;;;4856927;29;21229;-89
2020/12/24 07:36:50;;;;;;;0.83;0.83;;;6.40;99.90;;;;;;4859739;29;20192;-90
2020/12/24 07:39:16;;;;;;;2.10;0.53;;;6.50;99.90;;;;;;4811436;29;20713;-89
2020/12/24 07:41:42;;;;;;;0.10;0.10;;;6.60;99.90;;;;;;4858128;29;20314;-90
2020/12/24 07:44:10;;;;;;;2.00;0.70;;;6.70;99.90;;;;;;4826575;29;20282;-90
2020/12/24 07:46:36;;;;;;;0.30;0.30;;;6.80;99.90;;;;;;4857606;29;20227;-89
2020/12/24 07:49:03;;;;;;;1.03;0.40;;;6.90;99.90;;;;;;4841379;29;20193;-90
2020/12/24 07:51:29;;;;;;;0.20;0.20;;;6.90;99.90;;;;;;4841874;29;20240;-91
2020/12/24 07:54:05;;;;;;;0.60;0.43;;;6.90;99.90;;;;;;4838391;29;20272;-91
2020/12/24 07:56:32;;;;;;;0.40;0.40;;;6.90;99.90;;;;;;4834994;29;20230;-93
2020/12/24 07:59:03;;;;;;;0.37;0.37;;;6.80;99.90;;;;;;4841491;29;20230;-91
2020/12/24 08:01:28;;;;;;;5.87;1.40;;;6.80;99.90;;;;;;4855818;29;20188;-92
2020/12/24 08:04:02;;;;;;;2.47;0.60;;;6.80;99.90;;;;;;4841667;29;21323;-94
2020/12/24 08:06:32;;;;;;;0.30;0.30;;;6.80;99.90;;;;;;4841036;29;20279;-93
2020/12/24 08:09:17;;;;;;;2.00;0.83;;;6.90;99.90;;;;;;4810314;29;20247;-90
2020/12/24 08:11:55;;;;;;;5.40;0.50;;;6.90;99.90;;;;;;4826666;29;20236;-92
2020/12/24 08:14:25;;;;;;;3.50;0.30;;;6.90;99.90;;;;;;4855273;29;20223;-93
2020/12/24 08:17:20;;;;;;;2.37;0.50;;;6.90;99.90;;;;;;4828343;29;20230;-92
2020/12/24 08:20:12;;;;;;;0.20;0.20;;;6.80;99.90;;;;;;4834500;29;20246;-91
2020/12/24 08:22:47;;;;;;;0.30;0.30;;;6.80;99.90;;;;;;4838962;29;20224;-91
2020/12/24 08:25:16;;;;;;;0.10;0.10;;;6.90;99.90;;;;;;4840528;29;20286;-93
2020/12/24 08:27:46;;;;;;;2.57;0.87;;;6.90;99.90;;;;;;4826092;29;20195;-91
2020/12/24 08:30:14;;;;;;;0.80;0.80;;;6.90;99.90;;;;;;4855366;29;20232;-91
2020/12/24 08:32:40;;;;;;;0.43;0.43;;;6.90;99.90;;;;;;4838732;29;20217;-92
2020/12/24 08:35:14;;;;;;;1.27;1.17;;;6.80;99.90;;;;;;4838423;29;20223;-88
2020/12/24 08:37:40;;;;;;;0.40;0.40;;;6.80;99.90;;;;;;4840173;29;20607;-92
2020/12/24 08:40:19;;;;;;;0.70;0.57;;;6.80;99.90;;;;;;4829092;29;20192;-93
2020/12/24 08:42:46;;;;;;;0.17;0.17;;;6.80;99.90;;;;;;4845146;29;20279;-90
2020/12/24 08:45:13;;;;;;;0.20;0.20;;;6.90;99.90;;;;;;4828552;29;21285;-93
2020/12/24 08:47:40;;;;;;;0.20;0.20;;;6.90;99.90;;;;;;4844929;29;20253;-93
2020/12/24 08:50:06;;;;;;;4.23;0.53;;;6.90;99.90;;;;;;4831440;29;20220;-94
2020/12/24 08:52:38;;;;;;;0.50;0.50;;;6.80;99.90;;;;;;4830854;29;20248;-93
2020/12/24 08:55:09;;;;;;;0.10;0.10;;;6.80;99.90;;;;;;4834485;29;20197;-92
2020/12/24 08:57:36;;;;;;;0.20;0.20;;;6.90;99.90;;;;;;4844110;29;20220;-90
2020/12/24 09:00:12;;;;;;;0.10;0.10;;;6.90;99.90;;;;;;4828805;29;20216;-91
2020/12/24 09:02:41;;;;;;;0.30;0.30;;;6.90;99.90;;;;;;4844062;29;20282;-94
2020/12/24 09:05:07;;;;;;;1.37;1.20;;;6.90;99.90;;;;;;4843862;29;20602;-93
2020/12/24 09:07:40;;;;;;;0.50;0.47;;;6.90;99.90;;;;;;4825737;29;20284;-92
2020/12/24 09:10:13;;;;;;;0.30;0.30;;;6.80;99.90;;;;;;4845761;29;20188;-92
2020/12/24 09:12:41;;;;;;;6.67;0.70;;;6.80;99.90;;;;;;4828422;29;20591;-91
2020/12/24 09:15:15;;;;;;;0.63;0.30;;;6.80;99.90;;;;;;4842618;29;20288;-94
2020/12/24 09:17:52;;;;;;;0.30;0.30;;;6.70;99.90;;;;;;4840895;29;20435;-91
2020/12/24 09:20:33;;;;;;;0.40;0.40;;;6.70;99.90;;;;;;4839516;29;20255;-93
2020/12/24 09:23:02;;;;;;;0.43;0.33;;;6.70;99.90;;;;;;4838781;29;20845;-90
2020/12/24 09:25:41;;;;;;;0.77;0.37;;;6.70;99.90;;;;;;4839408;29;20200;-89
2020/12/24 09:28:26;;;;;;;3.37;1.47;;;6.80;99.90;;;;;;4839008;29;20195;-93
2020/12/24 09:31:00;;;;;;;2.60;0.30;;;6.90;99.90;;;;;;4844155;29;20240;-92
2020/12/24 09:33:27;;;;;;;0.53;0.40;;;6.90;99.90;;;;;;4827657;29;20221;-92
2020/12/24 09:35:53;;;;;;;0.20;0.20;;;6.90;99.90;;;;;;4826812;29;20220;-92
2020/12/24 09:38:19;;;;;;;0.20;0.20;;;6.90;99.90;;;;;;4841184;29;20231;-92
2020/12/24 09:40:45;;;;;;;3.73;0.20;;;6.90;99.90;;;;;;4825266;29;20248;-91
2020/12/24 09:43:11;;;;;;;0.10;0.10;;;6.90;99.90;;;;;;4842420;29;20195;-92
2020/12/24 09:45:38;;;;;;;0.60;0.60;;;6.90;99.90;;;;;;4842650;29;20869;-91
2020/12/24 09:48:04;;;;;;;0.57;0.50;;;6.90;99.90;;;;;;4826240;29;20233;-92
2020/12/24 09:50:31;;;;;;;0.40;0.33;;;6.90;99.90;;;;;;4838784;29;20216;-92
2020/12/24 09:52:57;;;;;;;0.10;0.10;;;6.90;99.90;;;;;;4837677;29;20219;-94
2020/12/24 09:55:25;;;;;;;0.53;0.53;;;6.90;99.90;;;;;;4826172;29;20197;-91
2020/12/24 09:57:51;;;;;;;2.53;1.13;;;6.90;99.90;;;;;;4813427;29;20208;-92
2020/12/24 10:00:17;;;;;;;1.00;0.40;;;6.90;99.90;;;;;;4830682;29;20221;-93
2020/12/24 10:02:43;;;;;;;0.20;0.20;;;6.90;99.90;;;;;;4822790;29;21093;-91
2020/12/24 10:05:11;;;;;;;0.20;0.20;;;6.90;99.90;;;;;;4827655;29;20781;-92
2020/12/24 10:07:37;;;;;;;0.20;0.20;;;6.90;99.90;;;;;;4832639;29;20256;-94
2020/12/24 10:10:04;;;;;;;0.30;0.30;;;7.00;99.90;;;;;;4827800;29;20192;-91
2020/12/24 10:12:30;;;;;;;0.30;0.30;;;7.00;99.90;;;;;;4841717;29;20300;-91
2020/12/24 10:14:59;;;;;;;0.17;0.17;;;7.10;99.90;;;;;;4835303;29;20220;-93
2020/12/24 10:17:28;;;;;;;0.50;0.50;;;7.10;99.90;;;;;;4840635;29;20311;-92
2020/12/24 10:19:55;;;;;;;0.93;0.80;;;7.10;99.90;;;;;;4834053;29;20233;-92
2020/12/24 10:22:22;;;;;;;2.30;1.67;;;7.20;99.90;;;;;;4852656;29;20247;-93
2020/12/24 10:24:48;;;;;;;0.17;0.17;;;7.20;99.90;;;;;;4830378;29;20196;-92
2020/12/24 10:27:14;;;;;;;3.80;0.87;;;7.20;99.90;;;;;;4842534;29;20220;-92
2020/12/24 10:29:45;;;;;;;0.30;0.30;;;7.20;99.90;;;;;;4841665;29;20228;-93
2020/12/24 10:32:11;;;;;;;1.50;0.40;;;7.20;99.90;;;;;;4819822;29;20297;-91
2020/12/24 10:34:37;;;;;;;0.70;0.70;;;7.10;99.90;;;;;;4840879;29;20714;-91
2020/12/24 10:37:03;;;;;;;0.50;0.50;;;7.20;99.90;;;;;;4846123;29;20725;-91
2020/12/24 10:39:32;;;;;;;5.63;0.93;;;7.10;99.90;;;;;;4845600;29;20228;-92
2020/12/24 10:41:58;;;;;;;2.47;2.20;;;7.10;99.90;;;;;;4842180;29;20271;-92
2020/12/24 10:44:24;;;;;;;2.10;0.43;;;7.10;99.90;;;;;;4822540;29;20754;-92
2020/12/24 10:46:56;;;;;;;0.20;0.20;;;7.10;99.90;;;;;;4827207;29;20224;-92
2020/12/24 10:49:23;;;;;;;0.10;0.10;;;7.10;99.90;;;;;;4842338;29;20261;-95
2020/12/24 10:51:49;;;;;;;0.73;0.30;;;7.10;99.90;;;;;;4845353;29;20220;-92
2020/12/24 10:54:16;;;;;;;0.20;0.20;;;7.10;99.90;;;;;;4841362;29;20220;-93
2020/12/24 10:56:49;;;;;;;1.97;0.33;;;7.10;99.90;;;;;;4828390;29;20686;-92
2020/12/24 10:59:15;;;;;;;1.23;0.57;;;7.10;99.90;;;;;;4825864;29;20271;-92
2020/12/24 11:01:50;;;;;;;0.20;0.20;;;7.10;99.90;;;;;;4840465;29;21015;-90
2020/12/24 11:04:17;;;;;;;0.60;0.60;;;7.10;99.90;;;;;;4843809;29;20207;-94
2020/12/24 11:06:45;;;;;;;0.40;0.40;;;7.10;99.90;;;;;;4844625;29;20196;-93
2020/12/24 11:09:14;;;;;;;0.47;0.47;;;7.10;99.90;;;;;;4845382;29;20256;-92
2020/12/24 11:11:43;;;;;;;3.87;0.70;;;7.10;99.90;;;;;;4843079;29;20266;-92
2020/12/24 11:14:10;;;;;;;0.87;0.47;;;7.10;99.90;;;;;;4850743;29;20224;-94
2020/12/24 11:16:36;;;;;;;0.40;0.40;;;7.10;99.90;;;;;;4843637;29;20326;-94
2020/12/24 11:19:06;;;;;;;2.63;0.53;;;7.10;99.90;;;;;;4841847;29;20248;-95
2020/12/24 11:21:38;;;;;;;0.27;0.27;;;7.10;99.90;;;;;;4844372;29;20235;-93
2020/12/24 11:24:06;;;;;;;1.43;1.33;;;7.10;99.90;;;;;;4843609;29;20227;-93
2020/12/24 11:26:37;;;;;;;0.30;0.30;;;7.20;99.90;;;;;;4835149;29;20255;-95
2020/12/24 11:29:05;;;;;;;0.40;0.40;;;7.30;99.90;;;;;;4824214;29;20220;-89
2020/12/24 11:31:32;;;;;;;0.40;0.40;;;7.30;99.90;;;;;;4829676;29;20274;-95
2020/12/24 11:34:01;;;;;;;1.93;0.40;;;7.30;99.90;;;;;;4839830;29;20201;-93
2020/12/24 11:36:28;;;;;;;5.20;1.33;;;7.40;99.90;;;;;;4836491;29;20765;-93
2020/12/24 11:38:55;;;;;;;0.50;0.50;;;7.30;99.90;;;;;;4837989;29;20228;-91
2020/12/24 11:41:23;;;;;;;0.20;0.20;;;7.30;99.90;;;;;;4827139;29;20256;-93
2020/12/24 11:43:50;;;;;;;0.47;0.47;;;7.20;99.90;;;;;;4838201;29;20323;-93
2020/12/24 11:46:17;;;;;;;0.53;0.50;;;7.20;99.90;;;;;;4842013;29;20192;-91
2020/12/24 11:48:46;;;;;;;0.10;0.10;;;7.20;99.90;;;;;;4840679;29;20205;-92
2020/12/24 11:51:13;;;;;;;0.50;0.50;;;7.20;99.90;;;;;;4826130;29;20773;-88
2020/12/24 11:53:40;;;;;;;1.13;0.20;;;7.10;99.90;;;;;;4851463;29;20316;-94
2020/12/24 11:56:18;;;;;;;2.60;0.63;;;7.20;99.90;;;;;;4834108;29;20224;-92
2020/12/24 11:58:47;;;;;;;0.20;0.20;;;7.20;99.90;;;;;;4842484;29;20698;-93
2020/12/24 12:01:17;;;;;;;1.53;0.77;;;7.20;99.90;;;;;;4841611;29;20203;-94
2020/12/24 12:03:46;;;;;;;1.23;0.60;;;7.20;99.90;;;;;;4844989;29;20200;-92
2020/12/24 12:06:13;;;;;;;0.87;0.60;;;7.10;99.90;;;;;;4841701;29;20265;-94
2020/12/24 12:08:39;;;;;;;0.20;0.20;;;7.10;99.90;;;;;;4841374;29;20798;-93
2020/12/24 12:11:07;;;;;;;0.93;0.30;;;7.10;99.90;;;;;;4841739;29;20795;-94
2020/12/24 12:13:38;;;;;;;0.57;0.57;;;7.20;99.90;;;;;;4841678;29;20227;-91
2020/12/24 12:16:08;;;;;;;1.50;0.47;;;7.20;99.90;;;;;;4842037;29;20185;-91
2020/12/24 12:18:35;;;;;;;0.83;0.60;;;7.20;99.90;;;;;;4856007;29;20252;-88
2020/12/24 12:21:02;;;;;;;0.20;0.20;;;7.20;99.90;;;;;;4829572;29;20216;-93
2020/12/24 12:23:27;;;;;;;0.83;0.50;;;7.30;99.90;;;;;;4840774;29;20231;-92
2020/12/24 12:25:53;;;;;;;0.20;0.20;;;7.40;99.90;;;;;;4838978;29;20239;-92
2020/12/24 12:28:19;;;;;;;0.40;0.40;;;7.40;99.90;;;;;;4816374;29;20196;-92
2020/12/24 12:30:45;;;;;;;0.10;0.10;;;7.50;99.90;;;;;;4839691;29;21229;-93
2020/12/24 12:33:11;;;;;;;0.20;0.20;;;7.40;99.90;;;;;;4820191;29;20311;-95
2020/12/24 12:35:40;;;;;;;0.10;0.10;;;7.40;99.90;;;;;;4839712;29;20235;-93
2020/12/24 12:38:06;;;;;;;0.10;0.10;;;7.40;99.90;;;;;;4838409;29;20256;-92
2020/12/24 12:40:32;;;;;;;0.40;0.23;;;7.40;99.90;;;;;;4860206;29;20646;-94
2020/12/24 12:43:00;;;;;;;2.80;0.93;;;7.50;99.90;;;;;;4846418;29;20559;-92
2020/12/24 12:45:26;;;;;;;1.17;0.70;;;8.20;99.90;;;;;;4828350;29;20220;-91
2020/12/24 12:47:52;;;;;;;0.20;0.20;;;9.00;99.90;;;;;;4849862;29;21106;-94
2020/12/24 12:50:18;;;;;;;3.80;0.83;;;9.10;99.90;;;;;;4843614;29;20216;-95
2020/12/24 12:52:44;;;;;;;0.87;0.30;;;9.70;99.90;;;;;;4859242;29;20294;-94
2020/12/24 12:55:10;;;;;;;0.30;0.30;;;9.20;99.90;;;;;;4843439;29;20802;-95
2020/12/24 12:57:35;;;;;;;2.00;1.03;;;8.70;99.90;;;;;;4834860;29;20256;-92
2020/12/24 13:00:08;;;;;;;0.40;0.40;;;8.50;99.90;;;;;;4856463;29;20219;-94
2020/12/24 13:02:34;;;;;;;0.87;0.87;;;8.30;99.90;;;;;;4858423;29;20295;-93
2020/12/24 13:05:03;;;;;;;0.87;0.50;;;8.20;99.90;;;;;;4841166;29;20327;-94